sensor_id;sensor_type;location;lat;lon;timestamp;P1;durP1;ratioP1;P2;durP2;ratioP2
76631;SDS011;65526;48.578;-4.520;2023-05-07T00:01:09;21.67;;;11.57;;
76631;SDS011;65526;48.578;-4.520;2023-05-07T00:03:36;29.45;;;12.85;;
76631;SDS011;65526;48.578;-4.520;2023-05-07T00:06:03;22.42;;;11.68;;
76631;SDS011;65526;48.578;-4.520;2023-05-07T00:08:30;21.55;;;10.02;;
76631;SDS011;65526;48.578;-4.520;2023-05-07T00:10:56;23.83;;;11.30;;
76631;SDS011;65526;48.578;-4.520;2023-05-07T00:13:22;24.13;;;11.00;;
76631;SDS011;65526;48.578;-4.520;2023-05-07T00:15:49;16.50;;;7.35;;
76631;SDS011;65526;48.578;-4.520;2023-05-07T00:18:15;13.40;;;7.25;;
76631;SDS011;65526;48.578;-4.520;2023-05-07T00:20:41;11.15;;;6.38;;
76631;SDS011;65526;48.578;-4.520;2023-05-07T00:23:08;10.27;;;5.20;;
76631;SDS011;65526;48.578;-4.520;2023-05-07T00:25:35;11.63;;;6.50;;
76631;SDS011;65526;48.578;-4.520;2023-05-07T00:28:01;16.98;;;7.97;;
76631;SDS011;65526;48.578;-4.520;2023-05-07T00:30:29;13.95;;;6.97;;
76631;SDS011;65526;48.578;-4.520;2023-05-07T00:32:56;15.45;;;7.30;;
76631;SDS011;65526;48.578;-4.520;2023-05-07T00:35:22;15.30;;;7.35;;
76631;SDS011;65526;48.578;-4.520;2023-05-07T00:37:49;19.40;;;8.98;;
76631;SDS011;65526;48.578;-4.520;2023-05-07T00:40:15;15.32;;;7.25;;
76631;SDS011;65526;48.578;-4.520;2023-05-07T00:42:42;14.98;;;5.75;;
76631;SDS011;65526;48.578;-4.520;2023-05-07T00:45:13;11.40;;;5.95;;
76631;SDS011;65526;48.578;-4.520;2023-05-07T00:47:40;13.82;;;6.63;;
76631;SDS011;65526;48.578;-4.520;2023-05-07T00:50:07;13.65;;;6.32;;
76631;SDS011;65526;48.578;-4.520;2023-05-07T00:52:35;13.23;;;7.18;;
76631;SDS011;65526;48.578;-4.520;2023-05-07T00:55:04;11.55;;;5.63;;
76631;SDS011;65526;48.578;-4.520;2023-05-07T00:57:41;12.20;;;6.68;;
76631;SDS011;65526;48.578;-4.520;2023-05-07T01:00:08;13.13;;;6.50;;
76631;SDS011;65526;48.578;-4.520;2023-05-07T01:02:35;14.93;;;6.68;;
76631;SDS011;65526;48.578;-4.520;2023-05-07T01:05:02;13.57;;;7.18;;
76631;SDS011;65526;48.578;-4.520;2023-05-07T01:07:31;10.85;;;5.35;;
76631;SDS011;65526;48.578;-4.520;2023-05-07T01:09:59;11.13;;;5.20;;
76631;SDS011;65526;48.578;-4.520;2023-05-07T01:12:26;11.55;;;5.55;;
76631;SDS011;65526;48.578;-4.520;2023-05-07T01:14:54;9.10;;;5.03;;
76631;SDS011;65526;48.578;-4.520;2023-05-07T01:17:20;10.50;;;5.68;;
76631;SDS011;65526;48.578;-4.520;2023-05-07T01:19:47;7.40;;;4.03;;
76631;SDS011;65526;48.578;-4.520;2023-05-07T01:22:14;14.00;;;5.47;;
76631;SDS011;65526;48.578;-4.520;2023-05-07T01:24:49;12.00;;;6.07;;
76631;SDS011;65526;48.578;-4.520;2023-05-07T01:27:16;12.20;;;5.82;;
76631;SDS011;65526;48.578;-4.520;2023-05-07T01:29:43;11.75;;;5.93;;
76631;SDS011;65526;48.578;-4.520;2023-05-07T01:32:09;12.13;;;6.25;;
76631;SDS011;65526;48.578;-4.520;2023-05-07T01:34:37;14.80;;;5.40;;
76631;SDS011;65526;48.578;-4.520;2023-05-07T01:37:05;8.68;;;5.07;;
76631;SDS011;65526;48.578;-4.520;2023-05-07T01:39:31;10.90;;;5.68;;
76631;SDS011;65526;48.578;-4.520;2023-05-07T01:41:59;11.60;;;5.43;;
76631;SDS011;65526;48.578;-4.520;2023-05-07T01:44:25;10.07;;;5.68;;
76631;SDS011;65526;48.578;-4.520;2023-05-07T01:46:53;10.73;;;5.38;;
76631;SDS011;65526;48.578;-4.520;2023-05-07T01:49:20;12.32;;;6.80;;
76631;SDS011;65526;48.578;-4.520;2023-05-07T01:51:47;12.93;;;6.60;;
76631;SDS011;65526;48.578;-4.520;2023-05-07T01:54:13;13.75;;;6.78;;
76631;SDS011;65526;48.578;-4.520;2023-05-07T01:56:40;13.98;;;6.18;;
76631;SDS011;65526;48.578;-4.520;2023-05-07T01:59:07;12.27;;;5.72;;
76631;SDS011;65526;48.578;-4.520;2023-05-07T02:01:33;11.15;;;5.50;;
76631;SDS011;65526;48.578;-4.520;2023-05-07T02:04:00;10.63;;;5.72;;
76631;SDS011;65526;48.578;-4.520;2023-05-07T02:06:28;11.23;;;5.65;;
76631;SDS011;65526;48.578;-4.520;2023-05-07T02:09:02;8.80;;;4.95;;
76631;SDS011;65526;48.578;-4.520;2023-05-07T02:11:28;8.50;;;4.63;;
76631;SDS011;65526;48.578;-4.520;2023-05-07T02:13:54;8.88;;;5.00;;
76631;SDS011;65526;48.578;-4.520;2023-05-07T02:16:21;9.48;;;4.40;;
76631;SDS011;65526;48.578;-4.520;2023-05-07T02:18:49;11.10;;;4.70;;
76631;SDS011;65526;48.578;-4.520;2023-05-07T02:21:15;11.25;;;5.53;;
76631;SDS011;65526;48.578;-4.520;2023-05-07T02:23:42;10.80;;;5.13;;
76631;SDS011;65526;48.578;-4.520;2023-05-07T02:26:08;12.23;;;5.60;;
76631;SDS011;65526;48.578;-4.520;2023-05-07T02:31:05;9.95;;;5.35;;
76631;SDS011;65526;48.578;-4.520;2023-05-07T02:33:32;13.18;;;6.00;;
76631;SDS011;65526;48.578;-4.520;2023-05-07T02:36:05;12.10;;;5.70;;
76631;SDS011;65526;48.578;-4.520;2023-05-07T02:38:40;8.77;;;5.03;;
76631;SDS011;65526;48.578;-4.520;2023-05-07T02:41:06;13.07;;;6.25;;
76631;SDS011;65526;48.578;-4.520;2023-05-07T02:43:32;8.93;;;5.00;;
76631;SDS011;65526;48.578;-4.520;2023-05-07T02:46:06;11.00;;;5.57;;
76631;SDS011;65526;48.578;-4.520;2023-05-07T02:48:36;12.73;;;6.47;;
76631;SDS011;65526;48.578;-4.520;2023-05-07T02:51:02;14.98;;;6.55;;
76631;SDS011;65526;48.578;-4.520;2023-05-07T02:53:30;11.90;;;6.85;;
76631;SDS011;65526;48.578;-4.520;2023-05-07T02:55:57;18.95;;;6.68;;
76631;SDS011;65526;48.578;-4.520;2023-05-07T02:58:26;12.65;;;6.72;;
76631;SDS011;65526;48.578;-4.520;2023-05-07T03:00:53;14.15;;;6.85;;
76631;SDS011;65526;48.578;-4.520;2023-05-07T03:03:52;13.57;;;6.25;;
76631;SDS011;65526;48.578;-4.520;2023-05-07T03:06:20;14.10;;;6.07;;
76631;SDS011;65526;48.578;-4.520;2023-05-07T03:08:46;11.95;;;6.03;;
76631;SDS011;65526;48.578;-4.520;2023-05-07T03:11:13;11.18;;;5.47;;
76631;SDS011;65526;48.578;-4.520;2023-05-07T03:13:40;14.35;;;5.55;;
76631;SDS011;65526;48.578;-4.520;2023-05-07T03:16:07;11.48;;;5.57;;
76631;SDS011;65526;48.578;-4.520;2023-05-07T03:18:33;9.40;;;4.90;;
76631;SDS011;65526;48.578;-4.520;2023-05-07T03:21:00;11.48;;;5.45;;
76631;SDS011;65526;48.578;-4.520;2023-05-07T03:23:26;11.48;;;5.03;;
76631;SDS011;65526;48.578;-4.520;2023-05-07T03:25:52;9.68;;;5.53;;
76631;SDS011;65526;48.578;-4.520;2023-05-07T03:28:19;10.88;;;5.45;;
76631;SDS011;65526;48.578;-4.520;2023-05-07T03:30:53;9.35;;;5.05;;
76631;SDS011;65526;48.578;-4.520;2023-05-07T03:33:20;12.52;;;6.00;;
76631;SDS011;65526;48.578;-4.520;2023-05-07T03:35:47;10.95;;;5.45;;
76631;SDS011;65526;48.578;-4.520;2023-05-07T03:38:19;11.23;;;5.00;;
76631;SDS011;65526;48.578;-4.520;2023-05-07T03:40:46;8.95;;;4.82;;
76631;SDS011;65526;48.578;-4.520;2023-05-07T03:43:12;8.65;;;4.78;;
76631;SDS011;65526;48.578;-4.520;2023-05-07T03:45:43;10.07;;;4.68;;
76631;SDS011;65526;48.578;-4.520;2023-05-07T03:48:14;11.55;;;5.40;;
76631;SDS011;65526;48.578;-4.520;2023-05-07T03:50:42;10.90;;;5.95;;
76631;SDS011;65526;48.578;-4.520;2023-05-07T03:53:08;11.90;;;7.20;;
76631;SDS011;65526;48.578;-4.520;2023-05-07T03:55:38;10.48;;;5.50;;
76631;SDS011;65526;48.578;-4.520;2023-05-07T03:58:04;8.45;;;4.38;;
76631;SDS011;65526;48.578;-4.520;2023-05-07T04:00:31;6.35;;;3.15;;
76631;SDS011;65526;48.578;-4.520;2023-05-07T04:03:11;5.40;;;2.70;;
76631;SDS011;65526;48.578;-4.520;2023-05-07T04:05:38;5.45;;;3.47;;
76631;SDS011;65526;48.578;-4.520;2023-05-07T04:08:04;5.68;;;3.47;;
76631;SDS011;65526;48.578;-4.520;2023-05-07T04:10:37;6.07;;;3.70;;
76631;SDS011;65526;48.578;-4.520;2023-05-07T04:13:08;7.72;;;3.92;;
76631;SDS011;65526;48.578;-4.520;2023-05-07T04:15:35;7.75;;;4.05;;
76631;SDS011;65526;48.578;-4.520;2023-05-07T04:18:02;6.97;;;4.18;;
76631;SDS011;65526;48.578;-4.520;2023-05-07T04:20:29;8.63;;;4.03;;
76631;SDS011;65526;48.578;-4.520;2023-05-07T04:23:01;6.82;;;3.47;;
76631;SDS011;65526;48.578;-4.520;2023-05-07T04:25:29;7.15;;;3.70;;
76631;SDS011;65526;48.578;-4.520;2023-05-07T04:28:02;6.35;;;3.45;;
76631;SDS011;65526;48.578;-4.520;2023-05-07T04:30:29;8.02;;;3.90;;
76631;SDS011;65526;48.578;-4.520;2023-05-07T04:32:56;6.88;;;4.00;;
76631;SDS011;65526;48.578;-4.520;2023-05-07T04:35:25;6.72;;;3.53;;
76631;SDS011;65526;48.578;-4.520;2023-05-07T04:37:52;5.07;;;2.67;;
76631;SDS011;65526;48.578;-4.520;2023-05-07T04:40:19;7.43;;;3.33;;
76631;SDS011;65526;48.578;-4.520;2023-05-07T04:42:46;6.55;;;3.33;;
76631;SDS011;65526;48.578;-4.520;2023-05-07T04:45:12;7.32;;;3.78;;
76631;SDS011;65526;48.578;-4.520;2023-05-07T04:47:41;5.38;;;2.70;;
76631;SDS011;65526;48.578;-4.520;2023-05-07T04:50:07;4.90;;;2.90;;
76631;SDS011;65526;48.578;-4.520;2023-05-07T04:52:35;5.03;;;2.92;;
76631;SDS011;65526;48.578;-4.520;2023-05-07T04:55:02;5.03;;;3.30;;
76631;SDS011;65526;48.578;-4.520;2023-05-07T04:57:34;6.10;;;3.92;;
76631;SDS011;65526;48.578;-4.520;2023-05-07T05:00:00;7.97;;;3.90;;
76631;SDS011;65526;48.578;-4.520;2023-05-07T05:02:30;7.07;;;4.15;;
76631;SDS011;65526;48.578;-4.520;2023-05-07T05:04:57;6.57;;;4.00;;
76631;SDS011;65526;48.578;-4.520;2023-05-07T05:07:24;7.85;;;4.30;;
76631;SDS011;65526;48.578;-4.520;2023-05-07T05:09:51;10.52;;;4.80;;
76631;SDS011;65526;48.578;-4.520;2023-05-07T05:12:18;9.13;;;3.90;;
76631;SDS011;65526;48.578;-4.520;2023-05-07T05:14:45;9.10;;;5.32;;
76631;SDS011;65526;48.578;-4.520;2023-05-07T05:17:11;8.88;;;4.57;;
76631;SDS011;65526;48.578;-4.520;2023-05-07T05:19:38;10.15;;;5.25;;
76631;SDS011;65526;48.578;-4.520;2023-05-07T05:22:04;7.25;;;4.38;;
76631;SDS011;65526;48.578;-4.520;2023-05-07T05:24:31;7.78;;;4.53;;
76631;SDS011;65526;48.578;-4.520;2023-05-07T05:26:58;7.78;;;3.92;;
76631;SDS011;65526;48.578;-4.520;2023-05-07T05:29:28;6.15;;;3.67;;
76631;SDS011;65526;48.578;-4.520;2023-05-07T05:31:54;6.45;;;3.70;;
76631;SDS011;65526;48.578;-4.520;2023-05-07T05:34:21;7.85;;;3.80;;
76631;SDS011;65526;48.578;-4.520;2023-05-07T05:36:48;10.93;;;2.85;;
76631;SDS011;65526;48.578;-4.520;2023-05-07T05:39:15;9.65;;;3.60;;
76631;SDS011;65526;48.578;-4.520;2023-05-07T05:41:44;4.75;;;2.63;;
76631;SDS011;65526;48.578;-4.520;2023-05-07T05:44:12;7.45;;;3.53;;
76631;SDS011;65526;48.578;-4.520;2023-05-07T05:46:39;5.70;;;3.00;;
76631;SDS011;65526;48.578;-4.520;2023-05-07T05:49:06;7.40;;;3.72;;
76631;SDS011;65526;48.578;-4.520;2023-05-07T05:51:33;3.45;;;2.30;;
76631;SDS011;65526;48.578;-4.520;2023-05-07T05:53:59;6.80;;;2.72;;
76631;SDS011;65526;48.578;-4.520;2023-05-07T05:56:26;8.35;;;3.00;;
76631;SDS011;65526;48.578;-4.520;2023-05-07T05:58:53;3.97;;;3.08;;
76631;SDS011;65526;48.578;-4.520;2023-05-07T06:01:19;8.48;;;3.10;;
76631;SDS011;65526;48.578;-4.520;2023-05-07T06:03:47;6.57;;;3.17;;
76631;SDS011;65526;48.578;-4.520;2023-05-07T06:06:14;6.90;;;3.25;;
76631;SDS011;65526;48.578;-4.520;2023-05-07T06:08:42;4.68;;;2.90;;
76631;SDS011;65526;48.578;-4.520;2023-05-07T06:11:11;6.45;;;2.63;;
76631;SDS011;65526;48.578;-4.520;2023-05-07T06:13:40;7.35;;;3.40;;
76631;SDS011;65526;48.578;-4.520;2023-05-07T06:16:06;14.73;;;3.67;;
76631;SDS011;65526;48.578;-4.520;2023-05-07T06:18:34;7.18;;;2.85;;
76631;SDS011;65526;48.578;-4.520;2023-05-07T06:21:02;4.93;;;3.05;;
76631;SDS011;65526;48.578;-4.520;2023-05-07T06:23:31;6.28;;;3.40;;
76631;SDS011;65526;48.578;-4.520;2023-05-07T06:25:59;7.35;;;3.65;;
76631;SDS011;65526;48.578;-4.520;2023-05-07T06:28:30;9.43;;;3.97;;
76631;SDS011;65526;48.578;-4.520;2023-05-07T06:31:16;5.68;;;3.50;;
76631;SDS011;65526;48.578;-4.520;2023-05-07T06:34:00;7.53;;;3.45;;
76631;SDS011;65526;48.578;-4.520;2023-05-07T06:36:33;6.55;;;3.35;;
76631;SDS011;65526;48.578;-4.520;2023-05-07T06:39:05;6.75;;;4.00;;
76631;SDS011;65526;48.578;-4.520;2023-05-07T06:41:31;8.02;;;3.70;;
76631;SDS011;65526;48.578;-4.520;2023-05-07T06:44:05;4.50;;;3.30;;
76631;SDS011;65526;48.578;-4.520;2023-05-07T06:46:37;8.43;;;3.47;;
76631;SDS011;65526;48.578;-4.520;2023-05-07T06:49:05;7.65;;;3.47;;
76631;SDS011;65526;48.578;-4.520;2023-05-07T06:51:31;8.65;;;2.95;;
76631;SDS011;65526;48.578;-4.520;2023-05-07T06:54:01;9.25;;;3.28;;
76631;SDS011;65526;48.578;-4.520;2023-05-07T06:56:31;6.80;;;3.97;;
76631;SDS011;65526;48.578;-4.520;2023-05-07T06:58:59;8.45;;;3.75;;
76631;SDS011;65526;48.578;-4.520;2023-05-07T07:01:29;5.38;;;3.70;;
76631;SDS011;65526;48.578;-4.520;2023-05-07T07:03:56;8.45;;;3.47;;
76631;SDS011;65526;48.578;-4.520;2023-05-07T07:06:22;9.45;;;3.95;;
76631;SDS011;65526;48.578;-4.520;2023-05-07T07:08:49;7.40;;;3.35;;
76631;SDS011;65526;48.578;-4.520;2023-05-07T07:11:17;8.95;;;3.25;;
76631;SDS011;65526;48.578;-4.520;2023-05-07T07:13:44;8.95;;;3.55;;
76631;SDS011;65526;48.578;-4.520;2023-05-07T07:16:10;10.68;;;4.35;;
76631;SDS011;65526;48.578;-4.520;2023-05-07T07:18:37;4.75;;;3.03;;
76631;SDS011;65526;48.578;-4.520;2023-05-07T07:21:04;4.68;;;2.47;;
76631;SDS011;65526;48.578;-4.520;2023-05-07T07:23:30;7.65;;;3.22;;
76631;SDS011;65526;48.578;-4.520;2023-05-07T07:25:57;8.88;;;3.03;;
76631;SDS011;65526;48.578;-4.520;2023-05-07T07:28:24;7.80;;;3.28;;
76631;SDS011;65526;48.578;-4.520;2023-05-07T07:30:50;7.22;;;3.03;;
76631;SDS011;65526;48.578;-4.520;2023-05-07T07:33:17;7.72;;;2.83;;
76631;SDS011;65526;48.578;-4.520;2023-05-07T07:35:44;5.55;;;2.53;;
76631;SDS011;65526;48.578;-4.520;2023-05-07T07:38:10;9.27;;;3.17;;
76631;SDS011;65526;48.578;-4.520;2023-05-07T07:40:37;8.30;;;2.70;;
76631;SDS011;65526;48.578;-4.520;2023-05-07T07:43:05;4.45;;;2.47;;
76631;SDS011;65526;48.578;-4.520;2023-05-07T07:45:32;7.78;;;3.03;;
76631;SDS011;65526;48.578;-4.520;2023-05-07T07:48:00;5.85;;;3.25;;
76631;SDS011;65526;48.578;-4.520;2023-05-07T07:50:27;11.65;;;3.22;;
76631;SDS011;65526;48.578;-4.520;2023-05-07T07:52:54;13.85;;;3.22;;
76631;SDS011;65526;48.578;-4.520;2023-05-07T07:55:20;7.93;;;2.83;;
76631;SDS011;65526;48.578;-4.520;2023-05-07T07:57:51;6.18;;;2.55;;
76631;SDS011;65526;48.578;-4.520;2023-05-07T08:00:17;9.75;;;2.90;;
76631;SDS011;65526;48.578;-4.520;2023-05-07T08:02:48;8.23;;;2.78;;
76631;SDS011;65526;48.578;-4.520;2023-05-07T08:05:21;4.43;;;2.35;;
76631;SDS011;65526;48.578;-4.520;2023-05-07T08:07:48;10.52;;;3.05;;
76631;SDS011;65526;48.578;-4.520;2023-05-07T08:10:23;7.70;;;2.38;;
76631;SDS011;65526;48.578;-4.520;2023-05-07T08:12:55;6.22;;;2.63;;
76631;SDS011;65526;48.578;-4.520;2023-05-07T08:15:22;7.40;;;2.10;;
76631;SDS011;65526;48.578;-4.520;2023-05-07T08:17:49;4.65;;;2.00;;
76631;SDS011;65526;48.578;-4.520;2023-05-07T08:20:16;5.72;;;2.20;;
76631;SDS011;65526;48.578;-4.520;2023-05-07T08:22:42;9.82;;;2.55;;
76631;SDS011;65526;48.578;-4.520;2023-05-07T08:25:09;8.82;;;2.17;;
76631;SDS011;65526;48.578;-4.520;2023-05-07T08:27:35;6.03;;;2.97;;
76631;SDS011;65526;48.578;-4.520;2023-05-07T08:30:02;9.07;;;2.60;;
76631;SDS011;65526;48.578;-4.520;2023-05-07T08:32:30;10.50;;;2.20;;
76631;SDS011;65526;48.578;-4.520;2023-05-07T08:34:56;7.80;;;2.20;;
76631;SDS011;65526;48.578;-4.520;2023-05-07T08:37:22;11.90;;;2.60;;
76631;SDS011;65526;48.578;-4.520;2023-05-07T08:39:49;7.65;;;2.25;;
76631;SDS011;65526;48.578;-4.520;2023-05-07T08:42:20;5.68;;;1.77;;
76631;SDS011;65526;48.578;-4.520;2023-05-07T08:47:19;9.20;;;1.85;;
76631;SDS011;65526;48.578;-4.520;2023-05-07T08:49:53;8.73;;;2.50;;
76631;SDS011;65526;48.578;-4.520;2023-05-07T08:52:21;9.30;;;1.70;;
76631;SDS011;65526;48.578;-4.520;2023-05-07T08:54:48;9.82;;;1.67;;
76631;SDS011;65526;48.578;-4.520;2023-05-07T08:57:15;6.57;;;1.63;;
76631;SDS011;65526;48.578;-4.520;2023-05-07T08:59:41;10.13;;;1.80;;
76631;SDS011;65526;48.578;-4.520;2023-05-07T09:02:09;7.05;;;1.88;;
76631;SDS011;65526;48.578;-4.520;2023-05-07T09:04:38;12.27;;;2.00;;
76631;SDS011;65526;48.578;-4.520;2023-05-07T09:07:04;12.05;;;2.00;;
76631;SDS011;65526;48.578;-4.520;2023-05-07T09:09:34;6.60;;;1.88;;
76631;SDS011;65526;48.578;-4.520;2023-05-07T09:12:02;7.05;;;1.52;;
76631;SDS011;65526;48.578;-4.520;2023-05-07T09:14:32;8.65;;;1.90;;
76631;SDS011;65526;48.578;-4.520;2023-05-07T09:16:59;11.90;;;1.45;;
76631;SDS011;65526;48.578;-4.520;2023-05-07T09:19:27;6.65;;;2.13;;
76631;SDS011;65526;48.578;-4.520;2023-05-07T09:22:02;12.48;;;2.00;;
76631;SDS011;65526;48.578;-4.520;2023-05-07T09:24:37;7.95;;;1.98;;
76631;SDS011;65526;48.578;-4.520;2023-05-07T09:29:34;5.60;;;1.50;;
76631;SDS011;65526;48.578;-4.520;2023-05-07T09:32:03;7.97;;;1.90;;
76631;SDS011;65526;48.578;-4.520;2023-05-07T09:34:34;6.00;;;1.85;;
76631;SDS011;65526;48.578;-4.520;2023-05-07T09:37:02;5.40;;;1.45;;
76631;SDS011;65526;48.578;-4.520;2023-05-07T09:39:39;5.43;;;1.63;;
76631;SDS011;65526;48.578;-4.520;2023-05-07T09:42:15;7.85;;;1.60;;
76631;SDS011;65526;48.578;-4.520;2023-05-07T09:44:43;5.50;;;2.00;;
76631;SDS011;65526;48.578;-4.520;2023-05-07T09:47:16;3.50;;;1.52;;
76631;SDS011;65526;48.578;-4.520;2023-05-07T09:49:48;10.55;;;2.80;;
76631;SDS011;65526;48.578;-4.520;2023-05-07T09:52:18;9.05;;;1.60;;
76631;SDS011;65526;48.578;-4.520;2023-05-07T09:54:49;5.82;;;1.35;;
76631;SDS011;65526;48.578;-4.520;2023-05-07T09:57:19;5.00;;;1.70;;
76631;SDS011;65526;48.578;-4.520;2023-05-07T09:59:50;6.30;;;2.17;;
76631;SDS011;65526;48.578;-4.520;2023-05-07T10:02:19;7.70;;;1.80;;
76631;SDS011;65526;48.578;-4.520;2023-05-07T10:04:50;6.05;;;1.27;;
76631;SDS011;65526;48.578;-4.520;2023-05-07T10:07:22;4.35;;;1.13;;
76631;SDS011;65526;48.578;-4.520;2023-05-07T10:09:53;6.03;;;1.63;;
76631;SDS011;65526;48.578;-4.520;2023-05-07T10:12:30;6.50;;;1.35;;
76631;SDS011;65526;48.578;-4.520;2023-05-07T10:15:08;7.20;;;1.63;;
76631;SDS011;65526;48.578;-4.520;2023-05-07T10:17:38;6.80;;;1.48;;
76631;SDS011;65526;48.578;-4.520;2023-05-07T10:20:06;2.88;;;1.52;;
76631;SDS011;65526;48.578;-4.520;2023-05-07T10:22:37;9.93;;;1.92;;
76631;SDS011;65526;48.578;-4.520;2023-05-07T10:25:09;6.05;;;1.75;;
76631;SDS011;65526;48.578;-4.520;2023-05-07T10:27:43;7.20;;;1.60;;
76631;SDS011;65526;48.578;-4.520;2023-05-07T10:30:26;8.70;;;1.55;;
76631;SDS011;65526;48.578;-4.520;2023-05-07T10:33:03;4.53;;;1.30;;
76631;SDS011;65526;48.578;-4.520;2023-05-07T10:35:38;5.45;;;1.55;;
76631;SDS011;65526;48.578;-4.520;2023-05-07T10:38:08;7.95;;;1.85;;
76631;SDS011;65526;48.578;-4.520;2023-05-07T10:40:36;4.40;;;1.30;;
76631;SDS011;65526;48.578;-4.520;2023-05-07T10:43:04;7.30;;;1.73;;
76631;SDS011;65526;48.578;-4.520;2023-05-07T10:45:37;5.50;;;1.45;;
76631;SDS011;65526;48.578;-4.520;2023-05-07T10:50:36;4.55;;;1.30;;
76631;SDS011;65526;48.578;-4.520;2023-05-07T11:01:51;5.20;;;1.45;;
76631;SDS011;65526;48.578;-4.520;2023-05-07T11:04:44;7.32;;;1.50;;
76631;SDS011;65526;48.578;-4.520;2023-05-07T11:07:27;6.50;;;1.80;;
76631;SDS011;65526;48.578;-4.520;2023-05-07T11:10:02;5.95;;;1.35;;
76631;SDS011;65526;48.578;-4.520;2023-05-07T11:15:33;3.60;;;1.27;;
76631;SDS011;65526;48.578;-4.520;2023-05-07T11:18:03;4.97;;;1.45;;
76631;SDS011;65526;48.578;-4.520;2023-05-07T11:28:53;2.33;;;0.80;;
76631;SDS011;65526;48.578;-4.520;2023-05-07T11:31:23;3.03;;;0.82;;
76631;SDS011;65526;48.578;-4.520;2023-05-07T11:33:52;3.05;;;0.73;;
76631;SDS011;65526;48.578;-4.520;2023-05-07T11:36:21;2.15;;;0.60;;
76631;SDS011;65526;48.578;-4.520;2023-05-07T11:38:51;6.40;;;1.20;;
76631;SDS011;65526;48.578;-4.520;2023-05-07T11:41:17;3.65;;;1.23;;
76631;SDS011;65526;48.578;-4.520;2023-05-07T11:43:58;8.05;;;1.50;;
76631;SDS011;65526;48.578;-4.520;2023-05-07T11:46:26;7.47;;;1.48;;
76631;SDS011;65526;48.578;-4.520;2023-05-07T11:48:54;7.85;;;2.08;;
76631;SDS011;65526;48.578;-4.520;2023-05-07T11:51:22;4.72;;;1.67;;
76631;SDS011;65526;48.578;-4.520;2023-05-07T11:53:49;6.68;;;2.08;;
76631;SDS011;65526;48.578;-4.520;2023-05-07T11:56:17;10.00;;;1.98;;
76631;SDS011;65526;48.578;-4.520;2023-05-07T11:58:45;6.25;;;1.60;;
76631;SDS011;65526;48.578;-4.520;2023-05-07T12:01:12;6.93;;;1.70;;
76631;SDS011;65526;48.578;-4.520;2023-05-07T12:03:40;7.53;;;2.30;;
76631;SDS011;65526;48.578;-4.520;2023-05-07T12:06:16;5.50;;;1.67;;
76631;SDS011;65526;48.578;-4.520;2023-05-07T12:08:43;9.57;;;1.60;;
76631;SDS011;65526;48.578;-4.520;2023-05-07T12:11:44;7.35;;;2.10;;
76631;SDS011;65526;48.578;-4.520;2023-05-07T12:14:05;8.75;;;1.80;;
76631;SDS011;65526;48.578;-4.520;2023-05-07T12:16:31;4.75;;;2.00;;
76631;SDS011;65526;48.578;-4.520;2023-05-07T12:18:58;6.07;;;2.25;;
76631;SDS011;65526;48.578;-4.520;2023-05-07T12:21:25;7.78;;;1.65;;
76631;SDS011;65526;48.578;-4.520;2023-05-07T12:23:52;4.10;;;1.02;;
76631;SDS011;65526;48.578;-4.520;2023-05-07T12:26:19;8.45;;;1.83;;
76631;SDS011;65526;48.578;-4.520;2023-05-07T12:28:49;4.75;;;1.90;;
76631;SDS011;65526;48.578;-4.520;2023-05-07T12:31:16;6.47;;;1.70;;
76631;SDS011;65526;48.578;-4.520;2023-05-07T12:33:43;6.03;;;1.70;;
76631;SDS011;65526;48.578;-4.520;2023-05-07T12:36:11;11.25;;;2.00;;
76631;SDS011;65526;48.578;-4.520;2023-05-07T12:38:39;4.78;;;1.42;;
76631;SDS011;65526;48.578;-4.520;2023-05-07T12:41:07;5.72;;;1.60;;
76631;SDS011;65526;48.578;-4.520;2023-05-07T12:43:35;6.35;;;1.45;;
76631;SDS011;65526;48.578;-4.520;2023-05-07T12:46:06;7.68;;;1.27;;
76631;SDS011;65526;48.578;-4.520;2023-05-07T12:48:33;5.13;;;1.40;;
76631;SDS011;65526;48.578;-4.520;2023-05-07T12:51:01;8.15;;;1.88;;
76631;SDS011;65526;48.578;-4.520;2023-05-07T12:53:29;7.35;;;1.88;;
76631;SDS011;65526;48.578;-4.520;2023-05-07T12:55:57;8.48;;;2.00;;
76631;SDS011;65526;48.578;-4.520;2023-05-07T12:58:26;4.10;;;1.70;;
76631;SDS011;65526;48.578;-4.520;2023-05-07T13:00:54;5.68;;;1.77;;
76631;SDS011;65526;48.578;-4.520;2023-05-07T13:03:27;8.85;;;2.30;;
76631;SDS011;65526;48.578;-4.520;2023-05-07T13:05:59;4.45;;;2.00;;
76631;SDS011;65526;48.578;-4.520;2023-05-07T13:08:30;8.00;;;2.30;;
76631;SDS011;65526;48.578;-4.520;2023-05-07T13:11:01;7.18;;;1.98;;
76631;SDS011;65526;48.578;-4.520;2023-05-07T13:13:33;4.68;;;1.65;;
76631;SDS011;65526;48.578;-4.520;2023-05-07T13:16:04;7.82;;;2.35;;
76631;SDS011;65526;48.578;-4.520;2023-05-07T13:18:32;7.10;;;2.25;;
76631;SDS011;65526;48.578;-4.520;2023-05-07T13:20:59;5.70;;;2.78;;
76631;SDS011;65526;48.578;-4.520;2023-05-07T13:23:26;6.35;;;3.45;;
76631;SDS011;65526;48.578;-4.520;2023-05-07T13:25:54;7.53;;;3.33;;
76631;SDS011;65526;48.578;-4.520;2023-05-07T13:28:21;7.22;;;3.50;;
76631;SDS011;65526;48.578;-4.520;2023-05-07T13:30:48;8.60;;;3.55;;
76631;SDS011;65526;48.578;-4.520;2023-05-07T13:33:15;7.10;;;3.08;;
76631;SDS011;65526;48.578;-4.520;2023-05-07T13:35:41;5.35;;;2.80;;
76631;SDS011;65526;48.578;-4.520;2023-05-07T13:38:08;5.65;;;3.58;;
76631;SDS011;65526;48.578;-4.520;2023-05-07T13:40:34;9.30;;;2.60;;
76631;SDS011;65526;48.578;-4.520;2023-05-07T13:43:01;9.02;;;2.67;;
76631;SDS011;65526;48.578;-4.520;2023-05-07T13:45:30;8.45;;;2.08;;
76631;SDS011;65526;48.578;-4.520;2023-05-07T13:47:57;7.00;;;2.88;;
76631;SDS011;65526;48.578;-4.520;2023-05-07T13:50:24;8.73;;;3.25;;
76631;SDS011;65526;48.578;-4.520;2023-05-07T13:52:52;10.95;;;2.83;;
76631;SDS011;65526;48.578;-4.520;2023-05-07T13:55:19;5.60;;;2.38;;
76631;SDS011;65526;48.578;-4.520;2023-05-07T13:57:46;5.57;;;2.50;;
76631;SDS011;65526;48.578;-4.520;2023-05-07T14:00:13;7.70;;;3.20;;
76631;SDS011;65526;48.578;-4.520;2023-05-07T14:02:41;5.88;;;2.25;;
76631;SDS011;65526;48.578;-4.520;2023-05-07T14:05:08;4.90;;;1.45;;
76631;SDS011;65526;48.578;-4.520;2023-05-07T14:07:35;3.47;;;1.73;;
76631;SDS011;65526;48.578;-4.520;2023-05-07T14:10:03;3.97;;;1.60;;
76631;SDS011;65526;48.578;-4.520;2023-05-07T14:12:31;5.32;;;1.50;;
76631;SDS011;65526;48.578;-4.520;2023-05-07T14:14:58;5.28;;;1.67;;
76631;SDS011;65526;48.578;-4.520;2023-05-07T14:17:25;4.55;;;1.77;;
76631;SDS011;65526;48.578;-4.520;2023-05-07T14:20:15;5.05;;;1.60;;
76631;SDS011;65526;48.578;-4.520;2023-05-07T14:22:42;2.58;;;1.80;;
76631;SDS011;65526;48.578;-4.520;2023-05-07T14:25:08;8.10;;;2.72;;
76631;SDS011;65526;48.578;-4.520;2023-05-07T14:27:38;7.57;;;3.55;;
76631;SDS011;65526;48.578;-4.520;2023-05-07T14:30:05;5.55;;;3.10;;
76631;SDS011;65526;48.578;-4.520;2023-05-07T14:32:32;8.18;;;4.50;;
76631;SDS011;65526;48.578;-4.520;2023-05-07T14:35:00;4.32;;;1.90;;
76631;SDS011;65526;48.578;-4.520;2023-05-07T14:37:26;7.50;;;3.60;;
76631;SDS011;65526;48.578;-4.520;2023-05-07T14:39:52;7.38;;;3.58;;
76631;SDS011;65526;48.578;-4.520;2023-05-07T14:42:19;8.23;;;3.50;;
76631;SDS011;65526;48.578;-4.520;2023-05-07T14:44:47;8.45;;;2.60;;
76631;SDS011;65526;48.578;-4.520;2023-05-07T14:47:16;8.73;;;2.90;;
76631;SDS011;65526;48.578;-4.520;2023-05-07T14:49:44;8.05;;;3.25;;
76631;SDS011;65526;48.578;-4.520;2023-05-07T14:52:10;4.75;;;2.92;;
76631;SDS011;65526;48.578;-4.520;2023-05-07T14:54:37;9.30;;;3.13;;
76631;SDS011;65526;48.578;-4.520;2023-05-07T14:57:04;7.97;;;3.42;;
76631;SDS011;65526;48.578;-4.520;2023-05-07T14:59:32;7.00;;;2.50;;
76631;SDS011;65526;48.578;-4.520;2023-05-07T15:01:58;7.35;;;2.95;;
76631;SDS011;65526;48.578;-4.520;2023-05-07T15:04:25;5.00;;;2.25;;
76631;SDS011;65526;48.578;-4.520;2023-05-07T15:06:51;8.38;;;2.28;;
76631;SDS011;65526;48.578;-4.520;2023-05-07T15:09:19;4.32;;;2.22;;